sensor_id;sensor_type;location;lat;lon;timestamp;pressure;altitude;pressure_sealevel;temperature;humidity
21547;BME280;41275;51.912;4.388;2023-02-20T00:04:56;102500.97;;;13.52;51.90
21547;BME280;41275;51.912;4.388;2023-02-20T00:10:17;102496.47;;;13.46;52.41
21547;BME280;41275;51.912;4.388;2023-02-20T00:15:38;102492.19;;;13.45;52.57
21547;BME280;41275;51.912;4.388;2023-02-20T00:21:00;102483.78;;;13.41;52.69
21547;BME280;41275;51.912;4.388;2023-02-20T00:26:21;102475.59;;;13.43;53.17
21547;BME280;41275;51.912;4.388;2023-02-20T00:31:42;102464.56;;;13.46;53.12
21547;BME280;41275;51.912;4.388;2023-02-20T00:37:04;102451.25;;;13.53;53.29
21547;BME280;41275;51.912;4.388;2023-02-20T00:42:25;102458.41;;;13.65;53.22
21547;BME280;41275;51.912;4.388;2023-02-20T00:47:46;102460.22;;;13.71;53.50
21547;BME280;41275;51.912;4.388;2023-02-20T00:53:08;102467.38;;;13.78;53.71
21547;BME280;41275;51.912;4.388;2023-02-20T00:58:29;102456.94;;;13.83;53.43
21547;BME280;41275;51.912;4.388;2023-02-20T01:03:50;102445.06;;;13.92;53.84
21547;BME280;41275;51.912;4.388;2023-02-20T01:09:12;102440.72;;;13.97;53.80
21547;BME280;41275;51.912;4.388;2023-02-20T01:14:33;102434.78;;;14.02;53.47
21547;BME280;41275;51.912;4.388;2023-02-20T01:19:54;102435.16;;;14.06;53.88
21547;BME280;41275;51.912;4.388;2023-02-20T01:25:16;102420.81;;;14.13;53.81
21547;BME280;41275;51.912;4.388;2023-02-20T01:30:37;102416.28;;;14.20;54.27
21547;BME280;41275;51.912;4.388;2023-02-20T01:35:58;102410.72;;;14.22;54.21
21547;BME280;41275;51.912;4.388;2023-02-20T01:41:20;102401.69;;;14.30;54.11
21547;BME280;41275;51.912;4.388;2023-02-20T01:46:45;102398.19;;;14.36;54.26
21547;BME280;41275;51.912;4.388;2023-02-20T01:52:14;102379.31;;;14.37;54.26
21547;BME280;41275;51.912;4.388;2023-02-20T01:57:40;102395.53;;;14.36;54.59
21547;BME280;41275;51.912;4.388;2023-02-20T02:03:06;102382.22;;;14.36;54.18
21547;BME280;41275;51.912;4.388;2023-02-20T02:08:29;102372.19;;;14.31;54.31
21547;BME280;41275;51.912;4.388;2023-02-20T02:13:51;102358.69;;;14.26;54.29
21547;BME280;41275;51.912;4.388;2023-02-20T02:19:41;102352.16;;;14.22;54.36
21547;BME280;41275;51.912;4.388;2023-02-20T02:31:16;102336.19;;;14.22;54.20
21547;BME280;41275;51.912;4.388;2023-02-20T02:36:52;102336.16;;;14.29;54.06
21547;BME280;41275;51.912;4.388;2023-02-20T02:42:33;102331.44;;;14.31;54.38
21547;BME280;41275;51.912;4.388;2023-02-20T02:48:23;102326.69;;;14.33;54.35
21547;BME280;41275;51.912;4.388;2023-02-20T02:54:06;102325.63;;;14.40;54.52
21547;BME280;41275;51.912;4.388;2023-02-20T02:59:30;102330.53;;;14.43;54.58
21547;BME280;41275;51.912;4.388;2023-02-20T03:04:54;102311.66;;;14.52;54.57
21547;BME280;41275;51.912;4.388;2023-02-20T03:10:19;102301.38;;;14.55;54.70
21547;BME280;41275;51.912;4.388;2023-02-20T03:15:52;102323.50;;;14.56;54.38
21547;BME280;41275;51.912;4.388;2023-02-20T03:21:17;102306.88;;;14.60;54.77
21547;BME280;41275;51.912;4.388;2023-02-20T03:26:41;102323.28;;;14.57;54.45
21547;BME280;41275;51.912;4.388;2023-02-20T03:32:06;102320.63;;;14.57;54.60
21547;BME280;41275;51.912;4.388;2023-02-20T03:37:49;102321.63;;;14.63;54.67
21547;BME280;41275;51.912;4.388;2023-02-20T03:43:30;102319.75;;;14.63;54.70
21547;BME280;41275;51.912;4.388;2023-02-20T03:48:58;102311.53;;;14.65;54.81
21547;BME280;41275;51.912;4.388;2023-02-20T03:54:20;102296.38;;;14.65;54.46
21547;BME280;41275;51.912;4.388;2023-02-20T03:59:53;102301.50;;;14.67;54.90
21547;BME280;41275;51.912;4.388;2023-02-20T04:05:26;102299.00;;;14.72;54.52
21547;BME280;41275;51.912;4.388;2023-02-20T04:10:59;102298.41;;;14.70;54.48
21547;BME280;41275;51.912;4.388;2023-02-20T04:16:22;102301.41;;;14.73;54.30
21547;BME280;41275;51.912;4.388;2023-02-20T04:21:55;102295.50;;;14.71;54.24
21547;BME280;41275;51.912;4.388;2023-02-20T04:27:18;102296.75;;;14.69;53.90
21547;BME280;41275;51.912;4.388;2023-02-20T04:32:39;102301.28;;;14.68;54.18
21547;BME280;41275;51.912;4.388;2023-02-20T04:38:00;102298.41;;;14.70;53.78
21547;BME280;41275;51.912;4.388;2023-02-20T04:43:22;102303.13;;;14.68;53.38
21547;BME280;41275;51.912;4.388;2023-02-20T04:48:43;102309.69;;;14.65;53.79
21547;BME280;41275;51.912;4.388;2023-02-20T04:54:04;102325.06;;;14.70;53.74
21547;BME280;41275;51.912;4.388;2023-02-20T04:59:25;102300.31;;;14.63;53.17
21547;BME280;41275;51.912;4.388;2023-02-20T05:04:47;102287.63;;;14.58;53.30
21547;BME280;41275;51.912;4.388;2023-02-20T05:10:12;102298.91;;;14.54;53.41
21547;BME280;41275;51.912;4.388;2023-02-20T05:15:33;102315.75;;;14.54;53.84
21547;BME280;41275;51.912;4.388;2023-02-20T05:20:55;102324.31;;;14.56;53.68
21547;BME280;41275;51.912;4.388;2023-02-20T05:26:35;102300.31;;;14.63;53.51
21547;BME280;41275;51.912;4.388;2023-02-20T05:31:56;102312.44;;;14.59;53.26
21547;BME280;41275;51.912;4.388;2023-02-20T05:37:19;102309.97;;;14.57;53.60
21547;BME280;41275;51.912;4.388;2023-02-20T05:42:41;102312.03;;;14.55;53.78
21547;BME280;41275;51.912;4.388;2023-02-20T05:48:02;102308.75;;;14.53;53.73
21547;BME280;41275;51.912;4.388;2023-02-20T05:53:26;102296.06;;;14.48;53.73
21547;BME280;41275;51.912;4.388;2023-02-20T05:58:48;102295.28;;;14.41;53.37
21547;BME280;41275;51.912;4.388;2023-02-20T06:04:12;102290.78;;;14.42;53.68
21547;BME280;41275;51.912;4.388;2023-02-20T06:09:33;102296.56;;;14.39;53.21
21547;BME280;41275;51.912;4.388;2023-02-20T06:14:54;102304.31;;;14.40;53.39
21547;BME280;41275;51.912;4.388;2023-02-20T06:20:15;102314.97;;;14.40;53.43
21547;BME280;41275;51.912;4.388;2023-02-20T06:25:37;102315.59;;;14.42;53.33
21547;BME280;41275;51.912;4.388;2023-02-20T06:30:58;102297.56;;;14.38;53.60
21547;BME280;41275;51.912;4.388;2023-02-20T06:36:25;102299.47;;;14.31;53.69
21547;BME280;41275;51.912;4.388;2023-02-20T06:41:47;102280.84;;;14.31;53.68
21547;BME280;41275;51.912;4.388;2023-02-20T06:47:08;102305.63;;;14.31;53.93
21547;BME280;41275;51.912;4.388;2023-02-20T06:52:29;102312.09;;;14.42;53.65
21547;BME280;41275;51.912;4.388;2023-02-20T06:57:51;102310.47;;;14.41;53.57
21547;BME280;41275;51.912;4.388;2023-02-20T07:03:12;102312.09;;;14.42;54.03
21547;BME280;41275;51.912;4.388;2023-02-20T07:08:33;102318.41;;;14.47;53.75
21547;BME280;41275;51.912;4.388;2023-02-20T07:13:54;102310.03;;;14.44;53.55
21547;BME280;41275;51.912;4.388;2023-02-20T07:19:18;102313.94;;;14.41;53.81
21547;BME280;41275;51.912;4.388;2023-02-20T07:24:39;102316.41;;;14.43;53.70
21547;BME280;41275;51.912;4.388;2023-02-20T07:30:01;102319.44;;;14.46;53.99
21547;BME280;41275;51.912;4.388;2023-02-20T07:35:22;102329.00;;;14.61;53.92
21547;BME280;41275;51.912;4.388;2023-02-20T07:40:44;102328.94;;;14.67;54.06
21547;BME280;41275;51.912;4.388;2023-02-20T07:46:05;102326.44;;;14.72;53.65
21547;BME280;41275;51.912;4.388;2023-02-20T07:51:26;102325.78;;;14.77;53.45
21547;BME280;41275;51.912;4.388;2023-02-20T07:56:47;102325.38;;;14.80;53.63
21547;BME280;41275;51.912;4.388;2023-02-20T08:02:08;102317.09;;;14.88;53.51
21547;BME280;41275;51.912;4.388;2023-02-20T08:07:30;102338.25;;;14.83;53.45
21547;BME280;41275;51.912;4.388;2023-02-20T08:12:52;102337.16;;;14.91;52.97
21547;BME280;41275;51.912;4.388;2023-02-20T08:18:14;102335.94;;;14.93;53.54
21547;BME280;41275;51.912;4.388;2023-02-20T08:23:35;102342.50;;;14.91;53.01
21547;BME280;41275;51.912;4.388;2023-02-20T08:28:56;102333.31;;;14.87;53.23
21547;BME280;41275;51.912;4.388;2023-02-20T08:34:18;102340.88;;;14.90;53.49
21547;BME280;41275;51.912;4.388;2023-02-20T08:39:39;102349.06;;;14.88;53.63
21547;BME280;41275;51.912;4.388;2023-02-20T08:45:02;102320.41;;;14.84;53.24
21547;BME280;41275;51.912;4.388;2023-02-20T08:50:25;102329.03;;;14.86;53.42
21547;BME280;41275;51.912;4.388;2023-02-20T08:55:47;102329.75;;;14.93;53.13
21547;BME280;41275;51.912;4.388;2023-02-20T09:01:08;102328.22;;;15.04;52.87
21547;BME280;41275;51.912;4.388;2023-02-20T09:06:29;102315.94;;;15.03;53.03
21547;BME280;41275;51.912;4.388;2023-02-20T09:11:50;102327.19;;;15.05;52.93
21547;BME280;41275;51.912;4.388;2023-02-20T09:17:13;102325.19;;;15.00;53.12
21547;BME280;41275;51.912;4.388;2023-02-20T09:22:34;102320.84;;;15.06;52.73
21547;BME280;41275;51.912;4.388;2023-02-20T09:27:56;102349.66;;;15.15;52.92
21547;BME280;41275;51.912;4.388;2023-02-20T09:33:17;102333.09;;;15.32;52.47
21547;BME280;41275;51.912;4.388;2023-02-20T09:38:39;102340.13;;;15.26;52.36
21547;BME280;41275;51.912;4.388;2023-02-20T09:49:52;102338.84;;;15.29;52.10
21547;BME280;41275;51.912;4.388;2023-02-20T09:55:19;102336.81;;;15.31;52.40
21547;BME280;41275;51.912;4.388;2023-02-20T10:00:42;102352.19;;;15.29;52.04
21547;BME280;41275;51.912;4.388;2023-02-20T10:06:19;102332.22;;;15.38;52.17
21547;BME280;41275;51.912;4.388;2023-02-20T10:17:37;102334.88;;;15.38;51.92
21547;BME280;41275;51.912;4.388;2023-02-20T10:28:49;102330.06;;;15.46;51.22
21547;BME280;41275;51.912;4.388;2023-02-20T10:34:18;102341.34;;;15.49;51.16
21547;BME280;41275;51.912;4.388;2023-02-20T10:39:49;102337.50;;;15.44;51.54
21547;BME280;41275;51.912;4.388;2023-02-20T10:45:46;102334.16;;;15.49;51.45
21547;BME280;41275;51.912;4.388;2023-02-20T10:51:34;102334.06;;;15.56;51.49
21547;BME280;41275;51.912;4.388;2023-02-20T10:56:58;102323.03;;;15.70;51.41
21547;BME280;41275;51.912;4.388;2023-02-20T11:02:24;102328.97;;;15.73;51.06
21547;BME280;41275;51.912;4.388;2023-02-20T11:07:48;102321.13;;;15.78;50.87
21547;BME280;41275;51.912;4.388;2023-02-20T11:13:14;102306.16;;;15.77;51.01
21547;BME280;41275;51.912;4.388;2023-02-20T11:18:38;102339.19;;;15.76;51.01
21547;BME280;41275;51.912;4.388;2023-02-20T11:24:17;102310.38;;;15.84;50.83
21547;BME280;41275;51.912;4.388;2023-02-20T11:29:55;102314.34;;;15.75;50.63
21547;BME280;41275;51.912;4.388;2023-02-20T11:35:23;102300.56;;;15.78;51.11
21547;BME280;41275;51.912;4.388;2023-02-20T11:41:00;102269.72;;;15.82;50.88
21547;BME280;41275;51.912;4.388;2023-02-20T11:46:23;102239.59;;;15.93;50.96
21547;BME280;41275;51.912;4.388;2023-02-20T11:51:45;102244.63;;;16.13;51.32
21547;BME280;41275;51.912;4.388;2023-02-20T12:02:35;102240.56;;;16.23;50.67
21547;BME280;41275;51.912;4.388;2023-02-20T12:07:58;102270.06;;;16.16;50.33
21547;BME280;41275;51.912;4.388;2023-02-20T12:13:19;102279.69;;;16.05;50.58
21547;BME280;41275;51.912;4.388;2023-02-20T12:41:46;102265.22;;;15.94;50.45
21547;BME280;41275;51.912;4.388;2023-02-20T13:10:16;102258.88;;;15.95;51.02
21547;BME280;41275;51.912;4.388;2023-02-20T13:15:49;102255.97;;;15.97;50.46
21547;BME280;41275;51.912;4.388;2023-02-20T13:21:15;102249.91;;;15.90;50.77
21547;BME280;41275;51.912;4.388;2023-02-20T13:32:01;102241.78;;;15.85;50.48
21547;BME280;41275;51.912;4.388;2023-02-20T13:54:13;102207.06;;;15.85;50.42
21547;BME280;41275;51.912;4.388;2023-02-20T13:59:37;102204.75;;;15.88;51.08
21547;BME280;41275;51.912;4.388;2023-02-20T14:05:05;102192.78;;;15.91;50.65
21547;BME280;41275;51.912;4.388;2023-02-20T14:10:35;102202.25;;;15.75;50.55
21547;BME280;41275;51.912;4.388;2023-02-20T14:15:58;102184.75;;;15.79;50.59
21547;BME280;41275;51.912;4.388;2023-02-20T14:21:20;102172.81;;;15.82;50.97
21547;BME280;41275;51.912;4.388;2023-02-20T14:26:42;102164.81;;;15.82;51.02
21547;BME280;41275;51.912;4.388;2023-02-20T14:32:04;102153.78;;;15.90;50.52
21547;BME280;41275;51.912;4.388;2023-02-20T14:43:24;102165.06;;;15.92;50.68
21547;BME280;41275;51.912;4.388;2023-02-20T14:48:46;102139.91;;;16.00;50.45
21547;BME280;41275;51.912;4.388;2023-02-20T14:54:17;102126.75;;;15.98;50.88
21547;BME280;41275;51.912;4.388;2023-02-20T14:59:39;102112.03;;;15.95;50.49
21547;BME280;41275;51.912;4.388;2023-02-20T15:05:05;102119.69;;;15.92;50.59
21547;BME280;41275;51.912;4.388;2023-02-20T15:10:37;102137.06;;;15.83;50.73
21547;BME280;41275;51.912;4.388;2023-02-20T15:16:07;102128.72;;;15.91;50.75
21547;BME280;41275;51.912;4.388;2023-02-20T15:21:37;102104.00;;;15.84;50.32
21547;BME280;41275;51.912;4.388;2023-02-20T15:27:13;102099.81;;;15.76;50.99
21547;BME280;41275;51.912;4.388;2023-02-20T15:32:34;102096.56;;;15.74;50.82
21547;BME280;41275;51.912;4.388;2023-02-20T15:37:59;102111.16;;;15.71;50.50
21547;BME280;41275;51.912;4.388;2023-02-20T15:43:21;102132.50;;;15.71;50.75
21547;BME280;41275;51.912;4.388;2023-02-20T15:48:42;102143.34;;;15.77;50.95
21547;BME280;41275;51.912;4.388;2023-02-20T15:54:04;102150.47;;;15.64;50.50
21547;BME280;41275;51.912;4.388;2023-02-20T15:59:26;102146.84;;;15.59;50.91
21547;BME280;41275;51.912;4.388;2023-02-20T16:04:48;102157.31;;;15.60;50.82
21547;BME280;41275;51.912;4.388;2023-02-20T16:10:11;102169.91;;;15.53;51.03
21547;BME280;41275;51.912;4.388;2023-02-20T16:15:32;102166.88;;;15.50;50.97
21547;BME280;41275;51.912;4.388;2023-02-20T16:20:53;102134.13;;;15.42;51.39
21547;BME280;41275;51.912;4.388;2023-02-20T16:26:17;102128.16;;;15.29;51.43
21547;BME280;41275;51.912;4.388;2023-02-20T16:37:15;102151.91;;;15.18;51.83
21547;BME280;41275;51.912;4.388;2023-02-20T16:42:37;102161.16;;;15.16;51.83
21547;BME280;41275;51.912;4.388;2023-02-20T16:47:58;102144.41;;;15.09;52.19
21547;BME280;41275;51.912;4.388;2023-02-20T16:53:20;102116.81;;;15.03;52.48
21547;BME280;41275;51.912;4.388;2023-02-20T16:58:41;102138.06;;;14.91;52.28
21547;BME280;41275;51.912;4.388;2023-02-20T17:04:02;102129.72;;;14.88;52.59
21547;BME280;41275;51.912;4.388;2023-02-20T17:09:23;102134.47;;;14.86;53.07
21547;BME280;41275;51.912;4.388;2023-02-20T17:14:45;102133.28;;;14.82;52.98
21547;BME280;41275;51.912;4.388;2023-02-20T17:20:10;102121.19;;;14.79;53.12
21547;BME280;41275;51.912;4.388;2023-02-20T17:25:32;102125.13;;;14.77;53.30
21547;BME280;41275;51.912;4.388;2023-02-20T17:30:54;102139.63;;;14.81;53.49
21547;BME280;41275;51.912;4.388;2023-02-20T17:36:15;102141.47;;;14.80;53.48
21547;BME280;41275;51.912;4.388;2023-02-20T17:41:36;102144.56;;;14.77;53.42
21547;BME280;41275;51.912;4.388;2023-02-20T17:46:58;102154.44;;;14.77;53.79
21547;BME280;41275;51.912;4.388;2023-02-20T17:52:21;102160.44;;;14.72;53.64
21547;BME280;41275;51.912;4.388;2023-02-20T17:57:43;102155.41;;;14.82;53.56
21547;BME280;41275;51.912;4.388;2023-02-20T18:03:04;102143.03;;;14.69;54.02
21547;BME280;41275;51.912;4.388;2023-02-20T18:08:26;102154.28;;;14.71;54.33
21547;BME280;41275;51.912;4.388;2023-02-20T18:13:47;102157.19;;;14.70;54.19
21547;BME280;41275;51.912;4.388;2023-02-20T18:19:10;102157.63;;;14.67;54.27
21547;BME280;41275;51.912;4.388;2023-02-20T18:24:33;102170.56;;;14.63;54.40
21547;BME280;41275;51.912;4.388;2023-02-20T18:29:55;102152.97;;;14.62;54.33
21547;BME280;41275;51.912;4.388;2023-02-20T18:35:16;102150.19;;;14.69;54.64
21547;BME280;41275;51.912;4.388;2023-02-20T18:40:38;102152.56;;;14.77;54.90
21547;BME280;41275;51.912;4.388;2023-02-20T18:45:59;102148.66;;;14.80;54.50
21547;BME280;41275;51.912;4.388;2023-02-20T18:51:32;102145.41;;;14.78;54.60
21547;BME280;41275;51.912;4.388;2023-02-20T18:56:54;102140.09;;;14.78;54.31
21547;BME280;41275;51.912;4.388;2023-02-20T19:02:16;102147.84;;;14.79;54.48
21547;BME280;41275;51.912;4.388;2023-02-20T19:07:44;102143.56;;;14.78;54.66
21547;BME280;41275;51.912;4.388;2023-02-20T19:13:05;102150.13;;;14.76;54.48
21547;BME280;41275;51.912;4.388;2023-02-20T19:18:27;102151.56;;;14.78;55.02
21547;BME280;41275;51.912;4.388;2023-02-20T19:23:48;102157.91;;;14.77;54.50
21547;BME280;41275;51.912;4.388;2023-02-20T19:29:09;102148.09;;;14.78;54.85
21547;BME280;41275;51.912;4.388;2023-02-20T19:34:32;102147.84;;;14.79;54.96
21547;BME280;41275;51.912;4.388;2023-02-20T19:39:53;102155.03;;;14.79;55.12
21547;BME280;41275;51.912;4.388;2023-02-20T19:45:14;102154.88;;;14.73;54.77
21547;BME280;41275;51.912;4.388;2023-02-20T19:50:36;102152.19;;;14.73;55.16
21547;BME280;41275;51.912;4.388;2023-02-20T19:55:57;102148.72;;;14.73;54.80
21547;BME280;41275;51.912;4.388;2023-02-20T20:01:18;102144.88;;;14.87;55.14
21547;BME280;41275;51.912;4.388;2023-02-20T20:06:39;102144.88;;;14.87;54.96
21547;BME280;41275;51.912;4.388;2023-02-20T20:12:01;102140.81;;;14.85;55.05
21547;BME280;41275;51.912;4.388;2023-02-20T20:17:22;102154.88;;;14.92;55.45
21547;BME280;41275;51.912;4.388;2023-02-20T20:22:44;102141.53;;;14.92;55.26
21547;BME280;41275;51.912;4.388;2023-02-20T20:28:06;102137.69;;;14.88;55.29
21547;BME280;41275;51.912;4.388;2023-02-20T20:33:29;102132.81;;;14.85;55.51
21547;BME280;41275;51.912;4.388;2023-02-20T20:38:51;102140.50;;;14.93;54.79
21547;BME280;41275;51.912;4.388;2023-02-20T20:44:12;102134.81;;;14.89;55.21
21547;BME280;41275;51.912;4.388;2023-02-20T20:49:33;102130.38;;;14.83;55.32
21547;BME280;41275;51.912;4.388;2023-02-20T20:54:56;102123.44;;;14.82;55.01
21547;BME280;41275;51.912;4.388;2023-02-20T21:00:26;102120.97;;;14.81;55.12
21547;BME280;41275;51.912;4.388;2023-02-20T21:05:49;102122.00;;;14.80;55.48
21547;BME280;41275;51.912;4.388;2023-02-20T21:11:10;102134.16;;;14.76;55.10
21547;BME280;41275;51.912;4.388;2023-02-20T21:16:31;102123.06;;;14.79;55.38
21547;BME280;41275;51.912;4.388;2023-02-20T21:21:53;102129.13;;;14.86;55.47
21547;BME280;41275;51.912;4.388;2023-02-20T21:27:14;102125.56;;;14.92;55.48
21547;BME280;41275;51.912;4.388;2023-02-20T21:32:35;102118.66;;;14.84;55.32
21547;BME280;41275;51.912;4.388;2023-02-20T21:37:56;102112.59;;;14.77;55.59
21547;BME280;41275;51.912;4.388;2023-02-20T21:43:18;102101.13;;;14.77;55.67
21547;BME280;41275;51.912;4.388;2023-02-20T21:48:57;102097.97;;;14.68;55.57
21547;BME280;41275;51.912;4.388;2023-02-20T21:54:21;102102.25;;;14.69;55.52
21547;BME280;41275;51.912;4.388;2023-02-20T21:59:43;102104.69;;;14.70;55.55
21547;BME280;41275;51.912;4.388;2023-02-20T22:05:06;102097.16;;;14.67;55.60
21547;BME280;41275;51.912;4.388;2023-02-20T22:10:27;102098.69;;;14.75;55.82
21547;BME280;41275;51.912;4.388;2023-02-20T22:16:07;102088.47;;;14.72;55.39
21547;BME280;41275;51.912;4.388;2023-02-20T22:21:47;102089.91;;;14.75;55.61
21547;BME280;41275;51.912;4.388;2023-02-20T22:27:26;102105.13;;;14.86;55.53
21547;BME280;41275;51.912;4.388;2023-02-20T22:33:06;102102.31;;;14.81;56.06
21547;BME280;41275;51.912;4.388;2023-02-20T22:38:46;102093.94;;;14.77;55.68
21547;BME280;41275;51.912;4.388;2023-02-20T22:44:26;102081.91;;;14.75;55.61
21547;BME280;41275;51.912;4.388;2023-02-20T22:50:05;102085.00;;;14.71;55.95
21547;BME280;41275;51.912;4.388;2023-02-20T22:55:45;102091.50;;;14.76;56.15
21547;BME280;41275;51.912;4.388;2023-02-20T23:01:25;102094.56;;;14.79;55.86
21547;BME280;41275;51.912;4.388;2023-02-20T23:07:04;102087.38;;;14.80;55.94
21547;BME280;41275;51.912;4.388;2023-02-20T23:12:44;102085.13;;;14.77;55.77
21547;BME280;41275;51.912;4.388;2023-02-20T23:18:24;102084.94;;;14.78;55.92
21547;BME280;41275;51.912;4.388;2023-02-20T23:24:04;102087.75;;;14.83;55.79
21547;BME280;41275;51.912;4.388;2023-02-20T23:29:43;102081.47;;;14.78;55.79
21547;BME280;41275;51.912;4.388;2023-02-20T23:35:23;102087.00;;;14.76;55.89
21547;BME280;41275;51.912;4.388;2023-02-20T23:41:05;102086.41;;;14.74;55.84
21547;BME280;41275;51.912;4.388;2023-02-20T23:46:46;102095.72;;;14.65;55.90
21547;BME280;41275;51.912;4.388;2023-02-20T23:52:25;102101.72;;;14.60;56.21
21547;BME280;41275;51.912;4.388;2023-02-20T23:58:05;102099.97;;;14.54;56.08
